New Richmond, WI

4:55 PM CDT on September 04, 2015 (GMT -0500)
New Richmond Municipal | | Change Station
CLOSE
Current Station
Airport
Location: New Richmond,
Elevation: 997 ft
Nearby Weather Stations

Elev 997 ft 45.15 °N, 92.53 °W | Updated 20 minutes ago

Scattered Clouds
Scattered Clouds
85 °F
Feels Like 90 °F
N
12
Wind Variable Wind from SE
Gusts 20 mph

Today
High -- | Low -- °F
--% Chance of Precip.
Yesterday
High -- | Low -- °F
Precip. -- in
6:35 AM 7:42 PM
Waning Gibbous, 55% visible
Pressure 29.93 in
Visibility 10.0 miles
Clouds Scattered Clouds 3200 ft
Heat Index 90 °F
Dew Point 70 °F
Humidity 60%
Rainfall 0.00 in
Snow Depth Not available.
UV 3 out of 12
Pollen 9.10 out of 12
Air Quality Not available.
Flu Activity Not available.
METAR KRNH 042135Z AUTO 14010G17KT 10SM SCT032 30/21 A2993 RMK AO2 T02960212
Pressure 29.93 in
Visibility 10.0 miles
Clouds Scattered Clouds 3200 ft
Heat Index 90 °F
Dew Point 70 °F
Humidity 60%
Rainfall 0.00 in
Snow Depth Not available.
UV 3 out of 12
Pollen 9.10 out of 12
Air Quality Not available.
Flu Activity Not available.
METAR KRNH 042135Z AUTO 14010G17KT 10SM SCT032 30/21 A2993 RMK AO2 T02960212

10-Day Weather Forecast

×

Almanac

Astronomy

Sep. 04, 2015 Rise Set
Actual Time
Civil Twilight
Nautical Twilight
Astronomical Twilight
Moon
Length of Visible Light
Length of Day
Tomorrow will be .
, % of the Moon is Illuminated

Today's Extremes

State Highs State Lows

Community

WunderPhotos

Upload Photos

1,852,297 photos uploaded!

WunderBlogs® & News

Nearby

Air Quality

  Air Quality AQ Index Pollutant
Not available.

Snow Depth

Station Depth Elevation

Earthquake Activity

City Distance Mag. Time & Date
Minimum magnitude displayed is 2.5.

Coastal Water Temperatures

Place Temperature

Stations

Nearby Weather Stations

Station Location Temp. Windchill Dew Point Humidity Wind Precip. Elev Updated Type